Time;durP1;ratioP1;P1;durP2;ratioP2;P2;SDS_P1;SDS_P2;PMS_P1;PMS_P2;Temp;Humidity;BMP_temperature;BMP_pressure;BME280_temperature;BME280_humidity;BME280_pressure;Samples;Min_cycle;Max_cycle;Signal;HPM_P1;HPM_P2
2020/12/08 00:01:17;;;;;;;18.60;13.13;;;3.90;99.90;;;;;;5020063;28;20236;-72
2020/12/08 00:03:42;;;;;;;19.10;12.97;;;3.90;99.90;;;;;;5032220;28;20175;-72
2020/12/08 00:06:08;;;;;;;17.40;11.73;;;4.00;99.90;;;;;;5032998;28;20230;-72
2020/12/08 00:08:33;;;;;;;18.50;12.80;;;3.90;99.90;;;;;;5023995;28;20183;-72
2020/12/08 00:10:59;;;;;;;21.43;13.57;;;3.90;99.90;;;;;;5013452;28;20243;-72
2020/12/08 00:13:24;;;;;;;17.43;12.60;;;3.90;99.90;;;;;;5013223;28;20527;-72
2020/12/08 00:15:50;;;;;;;17.53;13.33;;;3.90;99.90;;;;;;5022666;28;20199;-72
2020/12/08 00:18:15;;;;;;;20.73;12.27;;;3.80;99.90;;;;;;5032612;28;20678;-72
2020/12/08 00:20:41;;;;;;;18.20;12.80;;;3.80;99.90;;;;;;5031702;28;20690;-72
2020/12/08 00:23:07;;;;;;;19.60;12.47;;;3.80;99.90;;;;;;5020756;28;20168;-72
2020/12/08 00:25:32;;;;;;;17.50;13.10;;;3.70;99.90;;;;;;5013309;28;20195;-72
2020/12/08 00:27:58;;;;;;;19.20;13.37;;;3.70;99.90;;;;;;5022469;28;20509;-72
2020/12/08 00:30:23;;;;;;;17.63;13.47;;;3.60;99.90;;;;;;5018316;28;20211;-72
2020/12/08 00:32:49;;;;;;;18.03;13.23;;;3.60;99.90;;;;;;5013114;28;20255;-72
2020/12/08 00:35:19;;;;;;;19.10;13.60;;;3.50;99.90;;;;;;5013260;28;20718;-72
2020/12/08 00:37:45;;;;;;;17.40;12.80;;;3.50;99.90;;;;;;5028263;28;20186;-72
2020/12/08 00:40:11;;;;;;;18.10;12.70;;;3.50;99.90;;;;;;5034965;28;20433;-72
2020/12/08 00:42:39;;;;;;;21.70;14.10;;;3.40;99.90;;;;;;5036414;28;20424;-72
2020/12/08 00:45:09;;;;;;;20.57;14.90;;;3.30;99.90;;;;;;5016893;28;20293;-72
2020/12/08 00:47:35;;;;;;;20.70;14.20;;;3.30;99.90;;;;;;5017405;28;20422;-72
2020/12/08 00:50:00;;;;;;;21.23;14.20;;;3.30;99.90;;;;;;5017829;28;20449;-72
2020/12/08 00:52:26;;;;;;;21.30;14.40;;;3.30;99.90;;;;;;5016740;28;20500;-72
2020/12/08 00:54:52;;;;;;;21.10;14.87;;;3.30;99.90;;;;;;5017132;28;20176;-72
2020/12/08 00:57:23;;;;;;;22.83;15.43;;;3.30;99.90;;;;;;5028785;28;20629;-72
2020/12/08 00:59:49;;;;;;;22.30;14.83;;;3.30;99.90;;;;;;5046685;28;20267;-72
2020/12/08 01:02:16;;;;;;;23.50;15.10;;;3.40;99.90;;;;;;5026948;28;20429;-72
2020/12/08 01:04:42;;;;;;;21.20;14.20;;;3.40;99.90;;;;;;5035154;28;20461;-72
2020/12/08 01:07:08;;;;;;;17.40;14.00;;;3.40;99.90;;;;;;5034790;28;20852;-72
2020/12/08 01:09:35;;;;;;;20.10;14.10;;;3.40;99.90;;;;;;5035999;28;20487;-72
2020/12/08 01:12:01;;;;;;;21.63;15.43;;;3.40;99.90;;;;;;5028696;28;20516;-72
2020/12/08 01:14:26;;;;;;;24.53;15.70;;;3.40;99.90;;;;;;5016725;28;20430;-72
2020/12/08 01:16:51;;;;;;;21.53;15.97;;;3.50;99.90;;;;;;5016641;28;20257;-72
2020/12/08 01:19:17;;;;;;;27.40;16.50;;;3.60;99.90;;;;;;5023312;28;20195;-72
2020/12/08 01:21:43;;;;;;;21.30;15.40;;;3.70;99.90;;;;;;5035532;28;20176;-72
2020/12/08 01:24:08;;;;;;;23.83;16.57;;;3.70;99.90;;;;;;5035564;28;20186;-72
2020/12/08 01:26:33;;;;;;;24.43;15.70;;;3.60;99.90;;;;;;5023869;28;20171;-72
2020/12/08 01:28:59;;;;;;;25.50;15.97;;;3.60;99.90;;;;;;5016111;28;20195;-72
2020/12/08 01:31:31;;;;;;;26.13;16.17;;;3.60;99.90;;;;;;5016332;28;20262;-72
2020/12/08 01:33:58;;;;;;;23.93;15.07;;;3.60;99.90;;;;;;5029267;28;20579;-72
2020/12/08 01:36:23;;;;;;;22.87;16.47;;;3.70;99.90;;;;;;5035085;28;20929;-72
2020/12/08 01:38:48;;;;;;;25.90;17.00;;;3.80;99.90;;;;;;5035045;28;20437;-72
2020/12/08 01:41:14;;;;;;;20.93;14.97;;;3.90;99.90;;;;;;5020364;28;20183;-72
2020/12/08 01:43:50;;;;;;;26.60;16.00;;;4.00;99.90;;;;;;5016166;28;20203;-72
2020/12/08 01:46:22;;;;;;;21.87;15.27;;;4.00;99.90;;;;;;5016012;28;20202;-72
2020/12/08 01:48:48;;;;;;;21.17;15.10;;;4.10;99.90;;;;;;5015949;28;20465;-72
2020/12/08 01:51:16;;;;;;;22.50;15.77;;;4.10;99.90;;;;;;5014513;28;20422;-72
2020/12/08 01:53:42;;;;;;;20.93;15.17;;;4.10;99.90;;;;;;5017755;28;20422;-72
2020/12/08 01:56:12;;;;;;;23.20;16.63;;;4.10;99.90;;;;;;5025599;28;20420;-72
2020/12/08 01:58:38;;;;;;;22.70;15.47;;;4.10;99.90;;;;;;5015354;28;20557;-72
2020/12/08 02:01:03;;;;;;;22.93;15.33;;;4.10;99.90;;;;;;5020127;28;20422;-72
2020/12/08 02:03:30;;;;;;;26.33;17.00;;;4.10;99.90;;;;;;5034963;28;20253;-72
2020/12/08 02:05:55;;;;;;;24.27;17.13;;;4.20;99.90;;;;;;5021051;28;20714;-72
2020/12/08 02:08:31;;;;;;;25.70;16.37;;;4.20;99.90;;;;;;5021733;28;20520;-72
2020/12/08 02:10:57;;;;;;;20.97;15.90;;;4.30;99.90;;;;;;5034552;28;20182;-72
2020/12/08 02:13:23;;;;;;;23.33;16.73;;;4.30;99.90;;;;;;5034849;28;20434;-72
2020/12/08 02:15:49;;;;;;;21.67;15.90;;;4.30;99.90;;;;;;5024662;28;20541;-72
2020/12/08 02:18:14;;;;;;;24.87;16.27;;;4.40;99.90;;;;;;5015533;28;20965;-72
2020/12/08 02:20:43;;;;;;;23.23;15.27;;;4.40;99.90;;;;;;5031253;28;20445;-72
2020/12/08 02:23:09;;;;;;;20.03;15.30;;;4.30;99.90;;;;;;5021234;28;20177;-72
2020/12/08 02:25:35;;;;;;;24.40;16.83;;;4.30;99.90;;;;;;5014827;28;21020;-72
2020/12/08 02:28:01;;;;;;;22.30;15.00;;;4.30;99.90;;;;;;5025327;28;20418;-72
2020/12/08 02:30:27;;;;;;;20.97;14.13;;;4.30;99.90;;;;;;5020563;28;21058;-72
2020/12/08 02:32:52;;;;;;;20.17;14.40;;;4.10;99.90;;;;;;5015199;28;20188;-72
2020/12/08 02:35:18;;;;;;;22.33;15.60;;;4.10;99.90;;;;;;5015139;28;20617;-72
2020/12/08 02:37:44;;;;;;;21.90;15.47;;;4.00;99.90;;;;;;5030354;28;20176;-72
2020/12/08 02:40:09;;;;;;;22.43;15.97;;;3.90;99.90;;;;;;5033933;28;20664;-72
2020/12/08 02:42:35;;;;;;;25.63;15.50;;;4.00;99.90;;;;;;5034444;28;20167;-72
2020/12/08 02:45:00;;;;;;;22.27;15.10;;;4.10;99.90;;;;;;5016206;28;20708;-72
2020/12/08 02:47:26;;;;;;;19.93;14.83;;;4.10;99.90;;;;;;5014843;28;20202;-72
2020/12/08 02:49:54;;;;;;;22.43;16.20;;;4.10;99.90;;;;;;5014018;28;20230;-72
2020/12/08 02:52:21;;;;;;;25.37;15.57;;;4.20;99.90;;;;;;5032591;28;20706;-72
2020/12/08 02:54:46;;;;;;;22.43;15.17;;;4.30;99.90;;;;;;5034208;28;20471;-72
2020/12/08 02:57:12;;;;;;;23.40;15.70;;;4.30;99.90;;;;;;5032678;28;20423;-72
2020/12/08 02:59:37;;;;;;;24.17;16.00;;;4.40;99.90;;;;;;5021596;28;20590;-72
2020/12/08 03:02:03;;;;;;;25.33;16.60;;;4.40;99.90;;;;;;5017090;28;20648;-72
2020/12/08 03:04:28;;;;;;;21.17;15.30;;;4.50;99.90;;;;;;5021674;28;20580;-72
2020/12/08 03:06:54;;;;;;;23.70;17.60;;;4.50;99.90;;;;;;5031276;28;20265;-72
2020/12/08 03:09:20;;;;;;;20.07;15.10;;;4.60;99.90;;;;;;5019110;28;20505;-72
2020/12/08 03:11:46;;;;;;;21.60;15.67;;;4.60;99.90;;;;;;5030884;28;20213;-73
2020/12/08 03:14:11;;;;;;;22.80;16.80;;;4.60;99.90;;;;;;5045136;28;20183;-72
2020/12/08 03:16:37;;;;;;;24.70;16.73;;;4.60;99.90;;;;;;5012054;28;20186;-72
2020/12/08 03:19:03;;;;;;;22.80;15.20;;;4.70;99.90;;;;;;5021362;28;20210;-72
2020/12/08 03:21:36;;;;;;;26.83;17.57;;;4.60;99.90;;;;;;5033480;28;20253;-72
2020/12/08 03:24:02;;;;;;;25.40;17.53;;;4.60;99.90;;;;;;5033503;28;20504;-72
2020/12/08 03:26:28;;;;;;;22.07;16.20;;;4.50;99.90;;;;;;5022456;28;20509;-72
2020/12/08 03:28:54;;;;;;;23.73;15.93;;;4.50;99.90;;;;;;5013623;28;21008;-72
2020/12/08 03:31:19;;;;;;;25.67;17.10;;;4.40;99.90;;;;;;5012802;28;20712;-72
2020/12/08 03:33:45;;;;;;;23.83;16.50;;;4.30;99.90;;;;;;5016591;28;20420;-72
2020/12/08 03:36:20;;;;;;;22.30;16.27;;;4.40;99.90;;;;;;5010888;28;20226;-72
2020/12/08 03:38:50;;;;;;;22.90;16.30;;;4.40;99.90;;;;;;5012023;28;20213;-72
2020/12/08 03:41:23;;;;;;;25.80;17.80;;;4.50;99.90;;;;;;5028633;28;20508;-72
2020/12/08 03:43:50;;;;;;;25.60;17.10;;;4.50;99.90;;;;;;5013805;28;20433;-72
2020/12/08 03:46:25;;;;;;;20.77;15.57;;;4.50;99.90;;;;;;5013745;28;20455;-72
2020/12/08 03:48:52;;;;;;;24.27;16.50;;;4.40;99.90;;;;;;5032720;28;20918;-72
2020/12/08 03:51:20;;;;;;;23.20;15.40;;;4.40;99.90;;;;;;5016625;28;20775;-72
2020/12/08 03:53:47;;;;;;;29.60;17.37;;;4.40;99.90;;;;;;5013510;28;20457;-74
2020/12/08 03:56:14;;;;;;;24.13;17.27;;;4.20;99.90;;;;;;5029808;28;20430;-72
2020/12/08 03:58:40;;;;;;;26.97;16.17;;;4.20;99.90;;;;;;5013458;28;20447;-72
2020/12/08 04:01:11;;;;;;;24.70;16.47;;;4.20;99.90;;;;;;5013339;28;20426;-72
2020/12/08 04:03:37;;;;;;;23.50;16.30;;;4.10;99.90;;;;;;5016080;28;20446;-72
2020/12/08 04:06:03;;;;;;;27.27;19.47;;;4.10;99.90;;;;;;5032656;28;20461;-72
2020/12/08 04:08:29;;;;;;;29.77;18.30;;;4.20;99.90;;;;;;5030216;28;20581;-72
2020/12/08 04:10:54;;;;;;;28.27;17.63;;;4.20;99.90;;;;;;5013720;28;20490;-72
2020/12/08 04:13:20;;;;;;;28.23;18.07;;;4.30;99.90;;;;;;5012915;28;20177;-72
2020/12/08 04:15:46;;;;;;;24.50;16.53;;;4.30;99.90;;;;;;5013821;28;20190;-72
2020/12/08 04:18:12;;;;;;;28.80;16.77;;;4.30;99.90;;;;;;5019216;28;20217;-73
2020/12/08 04:20:40;;;;;;;27.30;18.30;;;4.30;99.90;;;;;;5030531;28;21171;-73
2020/12/08 04:23:06;;;;;;;27.07;17.00;;;4.40;99.90;;;;;;5032538;28;20232;-72
2020/12/08 04:25:34;;;;;;;22.27;15.57;;;4.40;99.90;;;;;;5023819;28;20550;-72
2020/12/08 04:28:00;;;;;;;23.40;16.10;;;4.50;99.90;;;;;;5013131;28;20186;-72
2020/12/08 04:30:25;;;;;;;22.27;15.70;;;4.60;99.90;;;;;;5011540;28;20466;-73
2020/12/08 04:32:51;;;;;;;22.93;16.27;;;4.60;99.90;;;;;;5014433;28;20183;-71
2020/12/08 04:35:16;;;;;;;27.03;17.30;;;4.70;99.90;;;;;;5013565;28;20582;-71
2020/12/08 04:37:42;;;;;;;28.50;17.00;;;4.70;99.90;;;;;;5013103;28;20647;-72
2020/12/08 04:40:07;;;;;;;21.57;14.60;;;4.80;99.90;;;;;;5014012;28;20245;-72
2020/12/08 04:42:33;;;;;;;21.10;16.00;;;4.80;99.90;;;;;;5013947;28;20249;-72
2020/12/08 04:44:59;;;;;;;24.73;15.37;;;4.90;99.90;;;;;;5032424;28;20559;-72
2020/12/08 04:47:26;;;;;;;19.27;14.40;;;4.90;99.90;;;;;;5017070;28;20622;-73
2020/12/08 04:49:56;;;;;;;23.27;15.40;;;4.90;99.90;;;;;;5014031;28;20453;-71
2020/12/08 04:52:22;;;;;;;21.63;15.80;;;4.90;99.90;;;;;;5015548;28;20509;-71
2020/12/08 04:54:47;;;;;;;20.77;14.80;;;5.00;99.90;;;;;;5039384;28;20458;-72
2020/12/08 04:57:13;;;;;;;23.50;14.87;;;5.10;99.90;;;;;;5032026;28;20236;-71
2020/12/08 04:59:39;;;;;;;20.30;14.13;;;5.00;99.90;;;;;;5031666;28;20231;-71
2020/12/08 05:02:05;;;;;;;19.03;12.87;;;5.00;99.90;;;;;;5032441;28;20261;-71
2020/12/08 05:04:31;;;;;;;17.40;13.40;;;5.10;99.90;;;;;;5032135;28;20201;-71
2020/12/08 05:07:07;;;;;;;17.40;13.40;;;5.10;99.90;;;;;;5013614;28;20428;-72
2020/12/08 05:09:54;;;;;;;17.27;12.90;;;5.10;99.90;;;;;;5019638;28;20203;-72
2020/12/08 05:12:23;;;;;;;16.40;12.13;;;5.10;99.90;;;;;;5019071;28;20530;-72
2020/12/08 05:14:50;;;;;;;17.37;13.23;;;5.10;99.90;;;;;;5012888;28;20492;-72
2020/12/08 05:17:23;;;;;;;16.80;13.30;;;5.20;99.90;;;;;;5011481;28;20466;-72
2020/12/08 05:20:02;;;;;;;16.80;12.33;;;5.20;99.90;;;;;;5028733;28;21027;-72
2020/12/08 05:22:27;;;;;;;16.70;12.20;;;5.20;99.90;;;;;;5017005;28;20561;-73
2020/12/08 05:24:53;;;;;;;15.60;12.27;;;5.20;99.90;;;;;;5014295;28;20565;-72
2020/12/08 05:27:19;;;;;;;15.93;11.57;;;5.20;99.90;;;;;;5035692;28;20261;-72
2020/12/08 05:29:45;;;;;;;16.40;13.10;;;5.20;99.90;;;;;;5035307;28;20202;-73
2020/12/08 05:32:29;;;;;;;16.60;13.03;;;5.20;99.90;;;;;;5032320;28;20950;-72
2020/12/08 05:34:55;;;;;;;15.90;12.57;;;5.20;99.90;;;;;;5022980;28;20187;-72
2020/12/08 05:37:21;;;;;;;18.60;13.57;;;5.20;99.90;;;;;;5034230;28;20426;-73
2020/12/08 05:39:48;;;;;;;16.90;13.80;;;5.30;99.90;;;;;;5027398;28;20456;-73
2020/12/08 05:42:20;;;;;;;15.87;13.00;;;5.30;99.90;;;;;;5011430;28;20425;-73
2020/12/08 05:44:51;;;;;;;17.10;13.00;;;5.30;99.90;;;;;;5035019;28;20546;-73
2020/12/08 05:47:18;;;;;;;17.43;12.43;;;5.30;99.90;;;;;;5023907;28;20916;-73
2020/12/08 05:49:44;;;;;;;15.53;12.70;;;5.30;99.90;;;;;;5014375;28;20952;-73
2020/12/08 05:52:10;;;;;;;16.23;12.73;;;5.20;99.90;;;;;;5015775;28;20451;-73
2020/12/08 05:54:35;;;;;;;17.70;12.53;;;5.20;99.90;;;;;;5030019;28;20549;-73
2020/12/08 05:57:15;;;;;;;15.83;12.70;;;5.20;99.90;;;;;;5034687;28;20429;-73
2020/12/08 05:59:40;;;;;;;15.13;12.03;;;5.10;99.90;;;;;;5034662;28;20204;-73
2020/12/08 06:02:06;;;;;;;18.10;14.10;;;5.10;99.90;;;;;;5017687;28;20513;-73
2020/12/08 06:04:42;;;;;;;21.93;14.83;;;5.00;99.90;;;;;;5015814;28;20199;-73
2020/12/08 06:07:08;;;;;;;18.03;12.73;;;5.00;99.90;;;;;;5016721;28;20179;-73
2020/12/08 06:09:34;;;;;;;17.40;13.50;;;5.00;99.90;;;;;;5034508;28;20473;-73
2020/12/08 06:12:02;;;;;;;15.70;12.40;;;5.00;99.90;;;;;;5033168;28;20421;-71
2020/12/08 06:14:36;;;;;;;19.83;14.60;;;5.00;99.90;;;;;;5029367;28;20599;-72
2020/12/08 06:17:06;;;;;;;17.40;13.20;;;5.00;99.90;;;;;;5015540;28;20426;-74
2020/12/08 06:19:35;;;;;;;17.63;12.03;;;5.00;99.90;;;;;;5015527;28;20447;-72
2020/12/08 06:22:10;;;;;;;17.80;13.10;;;5.10;99.90;;;;;;5023291;28;20774;-72
2020/12/08 06:24:39;;;;;;;16.53;12.60;;;5.10;99.90;;;;;;5008728;28;20543;-73
2020/12/08 06:27:05;;;;;;;15.70;12.77;;;5.10;99.90;;;;;;5000324;28;20446;-72
2020/12/08 06:29:31;;;;;;;17.43;13.20;;;5.10;99.90;;;;;;5013582;28;21037;-72
2020/12/08 06:31:56;;;;;;;20.53;13.70;;;5.00;99.90;;;;;;5019536;28;20421;-72
2020/12/08 06:34:29;;;;;;;17.40;12.90;;;5.00;99.90;;;;;;5028641;28;20193;-72
2020/12/08 06:36:55;;;;;;;18.80;13.80;;;5.00;99.90;;;;;;5034298;28;20179;-72
2020/12/08 06:39:22;;;;;;;20.20;14.00;;;5.00;99.90;;;;;;5038151;28;20422;-74
2020/12/08 06:41:48;;;;;;;17.53;13.70;;;5.00;99.90;;;;;;5015506;28;20446;-73
2020/12/08 06:44:19;;;;;;;19.33;14.03;;;5.00;99.90;;;;;;5023553;28;20447;-71
2020/12/08 06:47:01;;;;;;;18.37;13.07;;;5.00;99.90;;;;;;5029440;28;20423;-72
2020/12/08 06:49:33;;;;;;;17.53;13.10;;;5.10;99.90;;;;;;5016689;28;20805;-72
2020/12/08 06:51:59;;;;;;;17.30;13.00;;;5.00;99.90;;;;;;5017059;28;20465;-72
2020/12/08 06:54:25;;;;;;;18.87;14.17;;;5.00;99.90;;;;;;5019293;28;20462;-73
2020/12/08 06:56:51;;;;;;;19.27;13.77;;;5.10;99.90;;;;;;5032191;28;20186;-73
2020/12/08 06:59:27;;;;;;;17.37;13.20;;;5.00;99.90;;;;;;5024002;28;20484;-73
2020/12/08 07:01:53;;;;;;;17.73;12.43;;;5.10;99.90;;;;;;5012440;28;20421;-72
2020/12/08 07:04:19;;;;;;;16.27;12.17;;;5.10;99.90;;;;;;5012054;28;20453;-72
2020/12/08 07:06:45;;;;;;;16.30;13.00;;;5.10;99.90;;;;;;5019209;28;20430;-73
2020/12/08 07:09:11;;;;;;;19.03;13.93;;;5.10;99.90;;;;;;5022125;28;20463;-73
2020/12/08 07:11:37;;;;;;;17.63;12.97;;;5.20;99.90;;;;;;5030253;28;20434;-72
2020/12/08 07:14:07;;;;;;;19.20;13.53;;;5.10;99.90;;;;;;5024435;28;20447;-72
2020/12/08 07:16:34;;;;;;;17.57;13.67;;;5.20;99.90;;;;;;5023553;28;20571;-72
2020/12/08 07:19:00;;;;;;;20.10;12.97;;;5.10;99.90;;;;;;5027140;28;20451;-73
2020/12/08 07:21:26;;;;;;;15.80;12.63;;;5.20;99.90;;;;;;5023972;28;20979;-73
2020/12/08 07:23:53;;;;;;;16.87;12.67;;;5.20;99.90;;;;;;5025230;28;20485;-72
2020/12/08 07:26:24;;;;;;;19.20;13.73;;;5.20;99.90;;;;;;5015055;28;20211;-73
2020/12/08 07:28:50;;;;;;;19.03;13.70;;;5.20;99.90;;;;;;5012450;28;20449;-73
2020/12/08 07:31:29;;;;;;;17.37;13.10;;;5.20;99.90;;;;;;5010681;28;20426;-73
2020/12/08 07:33:55;;;;;;;16.67;12.00;;;5.20;99.90;;;;;;5009790;28;20428;-73
2020/12/08 07:36:26;;;;;;;21.37;14.23;;;5.20;99.90;;;;;;5023089;28;20490;-73
2020/12/08 07:38:53;;;;;;;15.73;12.27;;;5.20;99.90;;;;;;5021411;28;20757;-73
2020/12/08 07:41:24;;;;;;;18.57;12.90;;;5.20;99.90;;;;;;5026605;28;20445;-73
2020/12/08 07:43:51;;;;;;;17.17;13.70;;;5.30;99.90;;;;;;5013873;28;20817;-73
2020/12/08 07:46:28;;;;;;;16.40;12.40;;;5.30;99.90;;;;;;5011543;28;20462;-73
2020/12/08 07:49:10;;;;;;;17.50;13.50;;;5.30;99.90;;;;;;5010887;28;20442;-73
2020/12/08 07:51:37;;;;;;;15.40;11.83;;;5.30;99.90;;;;;;5014582;28;20504;-73
2020/12/08 07:54:05;;;;;;;16.87;12.57;;;5.30;99.90;;;;;;5019696;28;20419;-73
2020/12/08 07:56:32;;;;;;;17.17;12.97;;;5.30;99.90;;;;;;5014342;28;20454;-73
2020/12/08 07:58:58;;;;;;;16.30;12.47;;;5.30;99.90;;;;;;5023658;28;20969;-72
2020/12/08 08:01:23;;;;;;;13.57;10.70;;;5.40;99.90;;;;;;5012794;28;20427;-72
2020/12/08 08:03:49;;;;;;;14.20;11.23;;;5.40;99.90;;;;;;5012588;28;20453;-71
2020/12/08 08:06:17;;;;;;;14.77;11.97;;;5.40;99.90;;;;;;5012334;28;20966;-72
2020/12/08 08:08:43;;;;;;;16.47;13.00;;;5.50;99.90;;;;;;5013407;28;20664;-72
2020/12/08 08:11:09;;;;;;;15.80;10.93;;;5.50;99.90;;;;;;5017204;28;20431;-73
2020/12/08 08:13:35;;;;;;;13.43;10.57;;;5.50;99.90;;;;;;5015124;28;20433;-73
2020/12/08 08:16:01;;;;;;;14.17;11.50;;;5.50;99.90;;;;;;5026550;28;20197;-72
2020/12/08 08:18:26;;;;;;;12.27;10.33;;;5.50;99.90;;;;;;5012571;28;20556;-72
2020/12/08 08:20:52;;;;;;;16.53;12.20;;;5.50;99.90;;;;;;5014043;28;20271;-73
2020/12/08 08:23:18;;;;;;;15.40;11.00;;;5.50;99.90;;;;;;5014567;28;20179;-76
2020/12/08 08:25:43;;;;;;;14.00;11.77;;;5.60;99.90;;;;;;5017732;28;21437;-73
2020/12/08 08:28:09;;;;;;;17.43;12.00;;;5.60;99.90;;;;;;5017957;28;20198;-72
2020/12/08 08:30:35;;;;;;;14.83;11.60;;;5.60;99.90;;;;;;5018530;28;20187;-72
2020/12/08 08:33:01;;;;;;;15.33;11.97;;;5.50;99.90;;;;;;5022964;28;20426;-73
2020/12/08 08:48:38;;;;;;;16.63;13.50;;;5.50;99.90;;;;;;5041989;28;20663;-72
2020/12/08 08:51:04;;;;;;;14.10;11.50;;;5.70;99.90;;;;;;5024292;28;20413;-72
2020/12/08 08:53:31;;;;;;;14.23;11.20;;;5.60;99.90;;;;;;5022708;28;20194;-72
2020/12/08 08:55:56;;;;;;;15.70;11.73;;;5.70;99.90;;;;;;5026412;28;20422;-73
2020/12/08 08:58:22;;;;;;;13.77;11.30;;;5.70;99.90;;;;;;5024370;28;21359;-73
2020/12/08 09:00:48;;;;;;;12.80;11.47;;;5.80;99.90;;;;;;5020929;28;20559;-73
2020/12/08 09:03:13;;;;;;;15.67;11.40;;;5.80;99.90;;;;;;5023936;28;20672;-72
2020/12/08 09:05:39;;;;;;;15.20;10.13;;;5.80;99.90;;;;;;5023980;28;20202;-72
2020/12/08 09:08:05;;;;;;;14.00;11.40;;;5.80;99.90;;;;;;5020059;28;20194;-72
2020/12/08 09:10:31;;;;;;;15.07;11.43;;;5.80;99.90;;;;;;5026410;28;20196;-72
2020/12/08 09:12:56;;;;;;;15.03;10.67;;;5.80;99.90;;;;;;5024770;28;20167;-72
2020/12/08 09:15:22;;;;;;;12.50;11.03;;;5.80;99.90;;;;;;5030532;28;20885;-74
2020/12/08 09:17:48;;;;;;;15.10;11.43;;;5.80;99.90;;;;;;5027321;28;20218;-73
2020/12/08 09:20:14;;;;;;;12.60;9.93;;;5.90;99.90;;;;;;5025096;28;20215;-72
2020/12/08 09:22:41;;;;;;;14.10;11.53;;;5.90;99.90;;;;;;5024498;28;20261;-72
2020/12/08 09:25:08;;;;;;;12.97;10.43;;;5.80;99.90;;;;;;5022230;28;20421;-72
2020/12/08 09:27:33;;;;;;;15.00;11.30;;;5.90;99.90;;;;;;5023670;28;20429;-72
2020/12/08 09:29:59;;;;;;;15.77;10.83;;;5.80;99.90;;;;;;5024173;28;20522;-72
2020/12/08 09:32:27;;;;;;;12.30;9.97;;;5.80;99.90;;;;;;5024602;28;20226;-73
2020/12/08 09:34:52;;;;;;;15.80;11.17;;;5.70;99.90;;;;;;5024328;28;20179;-73
2020/12/08 09:37:18;;;;;;;12.30;10.97;;;5.70;99.90;;;;;;5023466;28;20818;-73
2020/12/08 09:39:44;;;;;;;14.47;11.27;;;5.80;99.90;;;;;;5025175;28;20242;-72
2020/12/08 09:42:09;;;;;;;12.80;9.93;;;5.80;99.90;;;;;;5024150;28;20171;-72
2020/12/08 09:44:35;;;;;;;15.07;11.03;;;5.90;99.90;;;;;;5023879;28;20317;-72
2020/12/08 09:47:01;;;;;;;16.53;11.27;;;5.90;99.90;;;;;;5022891;28;20320;-72
2020/12/08 09:49:26;;;;;;;12.63;10.80;;;5.90;99.90;;;;;;5012632;28;20273;-72
2020/12/08 09:51:52;;;;;;;16.63;10.70;;;6.00;99.90;;;;;;5015045;28;20689;-71
2020/12/08 09:54:18;;;;;;;13.60;10.40;;;6.00;99.90;;;;;;5013156;28;20201;-71
2020/12/08 09:56:47;;;;;;;11.97;9.60;;;6.00;99.90;;;;;;5014954;28;20222;-72
2020/12/08 09:59:13;;;;;;;15.27;11.60;;;6.10;99.90;;;;;;5008146;28;20306;-72
2020/12/08 10:01:38;;;;;;;14.00;10.70;;;6.10;99.90;;;;;;5008137;28;20423;-71
2020/12/08 10:04:04;;;;;;;13.53;11.10;;;6.00;99.90;;;;;;5009777;28;20422;-72
2020/12/08 10:06:30;;;;;;;12.20;9.23;;;6.10;99.90;;;;;;5008513;28;20760;-71
2020/12/08 10:08:56;;;;;;;14.40;10.70;;;6.00;99.90;;;;;;5012824;28;20751;-72
2020/12/08 10:11:23;;;;;;;12.50;10.60;;;6.10;99.90;;;;;;5014616;28;20226;-72
2020/12/08 10:13:49;;;;;;;15.30;11.00;;;6.10;99.90;;;;;;5014422;28;20442;-72
2020/12/08 10:16:22;;;;;;;13.00;10.33;;;6.10;99.90;;;;;;5014395;28;21092;-72
2020/12/08 10:18:49;;;;;;;13.90;10.10;;;6.10;99.90;;;;;;5014094;28;20534;-72
2020/12/08 10:21:27;;;;;;;12.67;10.20;;;6.20;99.90;;;;;;5014266;28;20509;-72
2020/12/08 10:23:53;;;;;;;16.10;12.73;;;6.20;99.90;;;;;;5006264;28;20414;-71
2020/12/08 10:26:20;;;;;;;11.60;10.13;;;6.30;99.90;;;;;;5014228;28;20537;-72
2020/12/08 10:28:46;;;;;;;13.30;10.50;;;6.30;99.90;;;;;;5014041;28;20492;-72
2020/12/08 10:31:15;;;;;;;12.70;9.73;;;6.30;99.90;;;;;;5014387;28;20493;-72
2020/12/08 10:33:42;;;;;;;14.00;10.70;;;6.40;99.90;;;;;;5012855;28;20418;-72
2020/12/08 10:36:08;;;;;;;13.67;11.00;;;6.40;99.90;;;;;;5014306;28;20457;-72
2020/12/08 10:38:34;;;;;;;12.07;9.50;;;6.50;99.90;;;;;;5014023;28;20450;-72
2020/12/08 10:40:59;;;;;;;12.10;9.53;;;6.50;99.90;;;;;;5006387;28;20618;-72
2020/12/08 10:43:25;;;;;;;11.87;9.43;;;6.50;99.90;;;;;;5014110;28;20171;-72
2020/12/08 10:45:51;;;;;;;13.10;10.90;;;6.60;99.90;;;;;;5013828;28;20191;-72
2020/12/08 10:48:16;;;;;;;13.07;10.47;;;6.60;99.90;;;;;;5013826;28;20187;-72
2020/12/08 10:50:43;;;;;;;13.47;10.43;;;6.70;99.90;;;;;;5015020;28;20179;-72
2020/12/08 10:53:08;;;;;;;12.10;9.70;;;6.70;99.90;;;;;;5015967;28;20175;-72
2020/12/08 10:55:34;;;;;;;13.87;10.30;;;6.80;99.90;;;;;;5007724;28;20968;-72
2020/12/08 10:58:00;;;;;;;12.83;9.70;;;6.80;99.90;;;;;;5013862;28;20195;-72
2020/12/08 11:00:26;;;;;;;11.77;9.80;;;6.80;99.90;;;;;;5026491;28;20278;-72
2020/12/08 11:02:52;;;;;;;12.07;10.27;;;6.80;99.90;;;;;;5030168;28;20251;-73
2020/12/08 11:05:17;;;;;;;10.40;9.30;;;6.80;99.90;;;;;;5023057;28;20907;-72
2020/12/08 11:07:43;;;;;;;13.80;10.57;;;6.80;99.90;;;;;;5014533;28;20225;-72
2020/12/08 11:10:08;;;;;;;13.50;9.93;;;6.80;99.90;;;;;;5014061;28;20200;-72
2020/12/08 11:12:34;;;;;;;14.27;10.57;;;6.90;99.90;;;;;;5014442;28;20981;-72
2020/12/08 11:15:00;;;;;;;12.93;10.03;;;6.80;99.90;;;;;;5013475;28;20269;-72
2020/12/08 11:17:25;;;;;;;12.37;10.03;;;6.80;99.90;;;;;;5013594;28;20621;-72
2020/12/08 11:19:51;;;;;;;12.90;10.27;;;6.70;99.90;;;;;;5012100;28;20205;-71
2020/12/08 11:22:17;;;;;;;13.57;10.80;;;6.80;99.90;;;;;;5013380;28;20176;-72
2020/12/08 11:24:43;;;;;;;12.70;10.00;;;6.80;99.90;;;;;;5013574;28;20234;-72
2020/12/08 11:27:13;;;;;;;13.77;10.00;;;6.70;99.90;;;;;;5012932;28;20215;-72
2020/12/08 11:29:39;;;;;;;11.90;10.07;;;6.70;99.90;;;;;;5013590;28;20780;-72
2020/12/08 11:32:04;;;;;;;13.90;10.00;;;6.70;99.90;;;;;;5013139;28;20430;-72
2020/12/08 11:34:30;;;;;;;11.17;9.97;;;6.70;99.90;;;;;;5013484;28;20657;-73
2020/12/08 11:36:56;;;;;;;12.60;9.73;;;6.70;99.90;;;;;;5014778;28;20230;-70
2020/12/08 11:39:22;;;;;;;18.53;11.60;;;6.60;99.90;;;;;;5005569;28;20577;-72
2020/12/08 11:41:47;;;;;;;12.47;10.10;;;6.60;99.90;;;;;;5011697;28;20176;-72
2020/12/08 11:44:13;;;;;;;14.03;10.20;;;6.50;99.90;;;;;;5012593;28;20756;-72
2020/12/08 11:46:39;;;;;;;11.97;9.70;;;6.50;99.90;;;;;;5012176;28;20302;-72
2020/12/08 11:49:08;;;;;;;12.20;10.40;;;6.50;99.90;;;;;;5012306;28;20266;-72
2020/12/08 11:51:34;;;;;;;13.43;9.70;;;6.60;99.90;;;;;;5013175;28;20164;-72
2020/12/08 11:54:00;;;;;;;12.20;10.00;;;6.70;99.90;;;;;;5013015;28;20421;-72
2020/12/08 11:56:26;;;;;;;13.20;9.93;;;6.80;99.90;;;;;;5012907;28;20228;-71
2020/12/08 11:58:52;;;;;;;14.23;9.37;;;6.90;99.90;;;;;;5012919;28;20437;-72
2020/12/08 12:01:18;;;;;;;14.67;10.17;;;6.80;99.90;;;;;;5012937;28;20426;-72
2020/12/08 12:03:44;;;;;;;15.37;9.97;;;6.80;99.90;;;;;;5012629;28;20508;-72
2020/12/08 12:06:12;;;;;;;13.43;9.33;;;6.80;99.90;;;;;;5010849;28;20556;-73
2020/12/08 12:08:41;;;;;;;13.30;10.67;;;6.90;99.90;;;;;;5012346;28;20234;-72
2020/12/08 12:11:08;;;;;;;15.10;11.60;;;6.90;99.90;;;;;;5012570;28;20423;-72
2020/12/08 12:13:33;;;;;;;14.53;10.40;;;7.00;99.90;;;;;;5004813;28;20422;-72
2020/12/08 12:15:59;;;;;;;13.10;10.20;;;7.10;99.90;;;;;;5010869;28;20502;-71
2020/12/08 12:18:25;;;;;;;14.70;9.80;;;7.00;99.90;;;;;;5012562;28;20209;-72
2020/12/08 12:20:50;;;;;;;13.10;9.70;;;7.10;99.90;;;;;;5012899;28;20246;-72
2020/12/08 12:23:16;;;;;;;12.30;8.87;;;7.10;99.90;;;;;;5012167;28;20195;-72
2020/12/08 12:25:42;;;;;;;11.40;8.77;;;7.20;99.90;;;;;;5012222;28;20532;-72
2020/12/08 12:28:08;;;;;;;11.23;9.40;;;7.20;99.90;;;;;;5012899;28;20167;-71
2020/12/08 12:30:34;;;;;;;12.20;8.40;;;7.20;99.90;;;;;;5012827;28;20234;-71
2020/12/08 12:32:59;;;;;;;12.83;9.43;;;7.10;99.90;;;;;;5012635;28;20441;-72
2020/12/08 12:35:25;;;;;;;10.13;8.30;;;7.20;99.90;;;;;;5011798;28;20183;-72
2020/12/08 12:37:51;;;;;;;9.97;8.63;;;7.20;99.90;;;;;;5005927;28;20598;-73
2020/12/08 12:40:17;;;;;;;10.27;9.10;;;7.20;99.90;;;;;;5012354;28;20198;-72
2020/12/08 12:42:42;;;;;;;9.73;8.73;;;7.30;99.90;;;;;;5012524;28;20185;-72
2020/12/08 12:45:08;;;;;;;10.00;8.20;;;7.30;99.90;;;;;;5012736;28;20266;-72
2020/12/08 12:47:34;;;;;;;10.17;9.10;;;7.40;99.90;;;;;;5011466;28;20552;-72
2020/12/08 12:50:00;;;;;;;13.07;9.13;;;7.50;99.90;;;;;;5010649;28;20200;-72